Time;durP1;ratioP1;P1;durP2;ratioP2;P2;SDS_P1;SDS_P2;PMS_P1;PMS_P2;Temp;Humidity;BMP_temperature;BMP_pressure;BME280_temperature;BME280_humidity;BME280_pressure;Samples;Min_cycle;Max_cycle;Signal;HPM_P1;HPM_P2
2024/02/03 00:11:26;;;;;;;1.57;1.10;;;9.00;98.20;;;;;;5013952;23;20843;-85
2024/02/03 00:20:30;;;;;;;1.53;1.10;;;9.00;98.20;;;;;;4947254;28;20487;-86
2024/02/03 00:23:23;;;;;;;;;;;;;;;;;;;;;
2024/02/03 00:26:39;;;;;;;1.57;1.20;;;9.10;98.20;;;;;;4954253;28;20474;-85
2024/02/03 00:29:34;;;;;;;1.60;1.17;;;9.10;98.20;;;;;;4936766;28;20474;-85
2024/02/03 00:32:28;;;;;;;1.60;1.30;;;9.10;98.20;;;;;;4947697;28;20514;-85
2024/02/03 00:52:07;;;;;;;1.60;1.30;;;9.10;98.20;;;;;;5171704;23;20480;-85
2024/02/03 00:58:01;;;;;;;1.53;1.10;;;9.10;98.20;;;;;;4987058;28;21125;-85
2024/02/03 01:00:53;;;;;;;1.57;1.10;;;9.10;98.20;;;;;;5088463;23;20500;-84
2024/02/03 01:03:26;;;;;;;1.57;1.17;;;9.10;98.20;;;;;;4964069;28;20976;-84
2024/02/03 01:06:11;;;;;;;1.57;1.10;;;9.10;98.20;;;;;;4968560;28;20468;-83
2024/02/03 01:08:55;;;;;;;1.53;1.10;;;9.10;98.20;;;;;;4967758;28;20466;-83
2024/02/03 01:14:31;;;;;;;1.57;1.13;;;9.10;98.20;;;;;;4944458;29;20553;-84
2024/02/03 01:17:00;;;;;;;1.60;1.20;;;9.10;98.20;;;;;;4937108;28;20569;-84
2024/02/03 01:19:38;;;;;;;1.57;1.10;;;9.10;98.20;;;;;;4946833;29;20491;-83
2024/02/03 01:22:09;;;;;;;1.53;1.20;;;9.10;98.20;;;;;;4938794;28;20505;-84
2024/02/03 01:24:43;;;;;;;1.70;1.20;;;9.10;98.20;;;;;;4944437;28;20464;-83
2024/02/03 01:27:21;;;;;;;1.60;1.20;;;9.10;98.20;;;;;;4940123;28;21193;-84
2024/02/03 01:29:51;;;;;;;1.57;1.10;;;9.10;98.20;;;;;;4943914;29;20739;-84
2024/02/03 01:32:19;;;;;;;1.60;1.20;;;9.10;98.20;;;;;;4940296;28;20507;-84
2024/02/03 01:34:54;;;;;;;1.60;1.10;;;9.10;98.20;;;;;;4942955;29;20464;-84
2024/02/03 01:37:37;;;;;;;1.50;1.10;;;9.10;98.20;;;;;;4940941;28;20486;-84
2024/02/03 01:40:08;;;;;;;1.53;1.10;;;9.10;98.20;;;;;;4941609;29;20479;-83
2024/02/03 01:42:43;;;;;;;1.53;1.10;;;9.10;98.20;;;;;;4944604;28;20496;-84
2024/02/03 01:45:12;;;;;;;1.53;1.10;;;9.10;98.20;;;;;;4940456;29;20470;-83
2024/02/03 01:50:38;;;;;;;1.57;1.10;;;9.10;98.20;;;;;;4935520;29;20570;-84
2024/02/03 01:53:19;;;;;;;1.60;1.20;;;9.10;98.20;;;;;;4944352;29;20582;-84
2024/02/03 01:56:09;;;;;;;1.53;1.20;;;9.10;98.20;;;;;;4936943;29;20467;-84
2024/02/03 01:58:44;;;;;;;1.60;1.20;;;9.10;98.20;;;;;;4957912;28;20556;-83
2024/02/03 02:01:26;;;;;;;1.60;1.20;;;9.10;98.20;;;;;;4954117;28;20491;-83
2024/02/03 02:04:11;;;;;;;1.60;1.27;;;9.10;98.20;;;;;;4974135;28;20454;-84
2024/02/03 02:06:44;;;;;;;1.57;1.10;;;9.10;98.20;;;;;;4955840;28;20473;-83
2024/02/03 02:09:20;;;;;;;1.57;1.10;;;9.10;98.20;;;;;;4969283;28;20489;-84
2024/02/03 02:11:57;;;;;;;1.50;1.10;;;9.10;98.20;;;;;;4957595;28;21085;-83
2024/02/03 02:14:33;;;;;;;1.57;1.17;;;9.10;98.20;;;;;;4974798;28;20473;-84
2024/02/03 02:17:00;;;;;;;1.60;1.30;;;9.10;98.20;;;;;;4956999;28;20491;-83
2024/02/03 02:19:28;;;;;;;1.57;1.10;;;9.10;98.20;;;;;;4966994;28;20506;-84
2024/02/03 02:22:02;;;;;;;1.57;1.17;;;9.10;98.20;;;;;;4958889;28;20486;-85
2024/02/03 02:24:30;;;;;;;1.60;1.20;;;9.10;98.20;;;;;;4975799;28;20462;-84
2024/02/03 02:26:58;;;;;;;1.50;1.10;;;9.10;98.20;;;;;;4966723;28;20480;-84
2024/02/03 02:41:47;;;;;;;1.57;1.10;;;9.20;98.20;;;;;;4944094;28;20564;-85
2024/02/03 02:44:40;;;;;;;1.60;1.20;;;9.20;98.20;;;;;;4972583;28;20465;-84
2024/02/03 02:53:31;;;;;;;1.57;1.20;;;9.20;98.20;;;;;;5057644;23;20484;-83
2024/02/03 02:56:09;;;;;;;1.57;1.20;;;9.20;98.20;;;;;;4943511;28;20466;-84
2024/02/03 02:59:11;;;;;;;1.57;1.10;;;9.20;98.20;;;;;;4990583;28;20464;-84
2024/02/03 03:02:25;;;;;;;1.60;1.20;;;9.20;98.20;;;;;;4895680;28;20480;-84
2024/02/03 03:05:47;;;;;;;;;;;;;;;;;;;;;
2024/02/03 03:08:27;;;;;;;1.57;1.10;;;9.20;98.20;;;;;;4964055;28;20489;-83
2024/02/03 03:17:14;;;;;;;1.60;1.20;;;9.30;98.20;;;;;;4940748;28;20481;-85
2024/02/03 03:36:32;;;;;;;1.60;1.10;;;9.30;98.20;;;;;;4921702;29;20491;-84
2024/02/03 03:39:45;;;;;;;1.60;1.20;;;9.40;98.20;;;;;;4915230;29;20491;-84
2024/02/03 03:43:18;;;;;;;1.50;1.10;;;9.40;98.20;;;;;;4909475;29;20473;-84
2024/02/03 04:25:01;;;;;;;1.57;1.10;;;9.50;98.20;;;;;;5449956;23;20513;-83
2024/02/03 04:54:06;;;;;;;1.53;1.10;;;9.50;98.20;;;;;;4881653;29;20484;-86
2024/02/03 05:00:24;;;;;;;1.57;1.10;;;9.50;98.20;;;;;;4964304;28;20549;-84
2024/02/03 05:07:19;;;;;;;1.57;1.00;;;9.50;98.20;;;;;;4874435;29;20978;-84
2024/02/03 05:13:35;;;;;;;1.60;1.20;;;9.50;98.20;;;;;;4942307;28;20570;-84
2024/02/03 05:26:03;;;;;;;1.53;1.10;;;9.50;98.20;;;;;;4949979;28;21004;-84
2024/02/03 05:44:20;;;;;;;1.57;1.10;;;9.60;98.20;;;;;;4731665;30;20464;-84
2024/02/03 05:59:58;;;;;;;1.70;1.60;;;9.70;98.20;;;;;;5041068;23;21211;-84
2024/02/03 06:03:39;;;;;;;1.57;1.10;;;9.70;98.20;;;;;;4975440;28;20477;-84
2024/02/03 06:06:46;;;;;;;1.53;1.10;;;9.70;98.20;;;;;;4887986;29;20550;-83
2024/02/03 06:26:56;;;;;;;2.10;1.77;;;9.70;98.20;;;;;;4897150;29;20481;-84
2024/02/03 06:30:06;;;;;;;1.60;1.20;;;9.70;98.20;;;;;;4771446;29;20504;-83
2024/02/03 06:33:08;;;;;;;1.60;1.20;;;9.70;98.20;;;;;;4776194;29;20508;-86
2024/02/03 06:36:04;;;;;;;;;;;;;;;;;;;;;
2024/02/03 06:52:16;;;;;;;1.60;1.20;;;9.70;98.20;;;;;;5486631;23;20482;-85
2024/02/03 06:55:07;;;;;;;1.57;1.17;;;9.70;98.20;;;;;;4991196;28;20489;-85
2024/02/03 06:57:46;;;;;;;1.60;1.13;;;9.70;98.20;;;;;;4974895;28;20878;-84
2024/02/03 07:00:45;;;;;;;1.57;1.10;;;9.70;98.20;;;;;;4975215;28;20473;-85
2024/02/03 07:03:21;;;;;;;1.60;1.20;;;9.70;98.20;;;;;;4961959;28;20607;-84
2024/02/03 07:06:04;;;;;;;1.60;1.10;;;9.70;98.20;;;;;;4966336;28;20516;-85
2024/02/03 07:31:15;;;;;;;1.50;1.10;;;9.80;98.20;;;;;;4998130;23;20585;-85
2024/02/03 07:34:09;;;;;;;1.60;1.10;;;9.80;98.20;;;;;;4969376;28;20480;-85
2024/02/03 07:39:47;;;;;;;1.60;1.20;;;9.80;98.20;;;;;;4981927;28;20481;-82
2024/02/03 07:42:23;;;;;;;1.57;1.10;;;9.90;98.20;;;;;;4978851;28;20480;-83
2024/02/03 07:44:53;;;;;;;1.50;1.10;;;9.90;98.20;;;;;;4979768;28;21070;-82
2024/02/03 07:47:21;;;;;;;1.53;1.10;;;9.90;98.20;;;;;;4961605;28;20565;-82
2024/02/03 07:49:48;;;;;;;1.53;1.20;;;9.90;98.20;;;;;;4975634;28;20593;-82
2024/02/03 07:52:15;;;;;;;1.57;1.10;;;9.90;98.20;;;;;;4967364;28;20484;-82
2024/02/03 07:54:41;;;;;;;1.60;1.10;;;9.90;98.20;;;;;;4977383;28;20470;-83
2024/02/03 07:57:08;;;;;;;1.50;1.10;;;9.90;98.20;;;;;;4961520;28;20500;-82
2024/02/03 07:59:35;;;;;;;1.57;1.10;;;9.90;98.20;;;;;;4973075;28;20936;-83
2024/02/03 08:02:03;;;;;;;1.60;1.20;;;9.90;98.20;;;;;;4963693;28;20490;-82
2024/02/03 08:04:31;;;;;;;1.57;1.10;;;10.00;98.20;;;;;;4974106;28;20466;-82
2024/02/03 08:06:58;;;;;;;1.53;1.10;;;10.00;98.20;;;;;;4960800;28;20498;-83
2024/02/03 08:09:27;;;;;;;1.57;1.10;;;10.00;98.20;;;;;;4973008;28;20992;-84
2024/02/03 08:11:56;;;;;;;1.50;1.10;;;10.00;98.20;;;;;;4967034;28;20541;-84
2024/02/03 08:14:22;;;;;;;1.60;1.10;;;10.00;98.20;;;;;;4977199;28;20973;-84
2024/02/03 08:16:49;;;;;;;1.57;1.10;;;10.00;98.20;;;;;;4973595;28;20521;-84
2024/02/03 08:19:16;;;;;;;1.60;1.20;;;10.00;98.20;;;;;;4979221;28;20474;-84
2024/02/03 08:22:28;;;;;;;1.57;1.10;;;10.00;98.20;;;;;;4976965;28;20956;-84
2024/02/03 08:24:55;;;;;;;1.57;1.10;;;10.00;98.20;;;;;;4980153;28;20478;-84
2024/02/03 08:27:22;;;;;;;1.57;1.10;;;10.00;98.20;;;;;;4969792;28;20493;-83
2024/02/03 08:29:49;;;;;;;1.57;1.10;;;10.00;98.20;;;;;;4978981;28;20529;-83
2024/02/03 08:32:16;;;;;;;1.60;1.20;;;10.10;98.20;;;;;;4967311;28;20485;-84
2024/02/03 08:34:44;;;;;;;1.57;1.10;;;10.10;98.20;;;;;;4977072;28;20458;-84
2024/02/03 08:37:12;;;;;;;1.60;1.20;;;10.10;98.20;;;;;;4967732;28;20493;-84
2024/02/03 08:39:39;;;;;;;1.60;1.20;;;10.10;98.20;;;;;;4981146;28;20481;-84
2024/02/03 08:42:06;;;;;;;1.50;1.10;;;10.10;98.20;;;;;;4968652;28;20546;-84
2024/02/03 08:44:51;;;;;;;1.50;1.10;;;10.10;98.20;;;;;;4978830;28;20465;-84
2024/02/03 08:47:18;;;;;;;1.60;1.10;;;10.20;98.20;;;;;;4957831;28;20489;-84
2024/02/03 08:49:52;;;;;;;1.60;1.10;;;10.20;98.20;;;;;;4975123;28;20512;-84
2024/02/03 08:52:20;;;;;;;1.53;1.10;;;10.20;98.20;;;;;;4966356;28;20569;-84
2024/02/03 08:54:47;;;;;;;1.60;1.10;;;10.20;98.20;;;;;;4979882;28;20796;-83
2024/02/03 08:57:14;;;;;;;1.53;1.10;;;10.30;98.20;;;;;;4968756;28;20907;-85
2024/02/03 08:59:43;;;;;;;1.60;1.20;;;10.30;98.20;;;;;;4977913;28;20552;-83
2024/02/03 09:02:10;;;;;;;1.50;1.10;;;10.30;98.20;;;;;;4963757;28;20497;-83
2024/02/03 09:04:37;;;;;;;1.53;1.10;;;10.30;98.20;;;;;;4978426;28;20458;-83
2024/02/03 09:07:04;;;;;;;1.53;1.10;;;10.30;98.20;;;;;;4961393;28;20482;-83
2024/02/03 09:09:32;;;;;;;1.50;1.20;;;10.30;98.20;;;;;;4979255;28;20533;-83
2024/02/03 09:12:01;;;;;;;1.57;1.10;;;10.40;98.20;;;;;;4980166;28;20553;-83
2024/02/03 09:14:28;;;;;;;1.57;1.10;;;10.40;98.20;;;;;;4999249;28;20548;-83
2024/02/03 09:16:55;;;;;;;1.60;1.10;;;10.40;98.20;;;;;;4988971;28;20489;-83
2024/02/03 09:20:28;;;;;;;;;;;;;;;;;;;;;
2024/02/03 09:35:17;;;;;;;1.53;1.10;;;10.50;98.20;;;;;;4942010;29;20467;-83
2024/02/03 09:37:45;;;;;;;1.60;1.10;;;10.50;98.20;;;;;;4943402;28;20482;-82
2024/02/03 09:40:26;;;;;;;1.57;1.07;;;10.50;98.20;;;;;;4934323;29;20495;-82
2024/02/03 09:42:56;;;;;;;1.60;1.30;;;10.50;98.20;;;;;;4936125;28;20594;-82
2024/02/03 09:48:35;;;;;;;1.60;1.10;;;10.50;98.20;;;;;;4862974;29;21821;-83
2024/02/03 09:51:05;;;;;;;1.60;1.10;;;10.60;98.20;;;;;;5133301;23;20584;-80
2024/02/03 09:56:44;;;;;;;1.60;1.10;;;10.60;98.20;;;;;;4965087;28;20476;-79
2024/02/03 09:59:17;;;;;;;1.57;1.10;;;10.60;98.20;;;;;;4978656;28;20468;-81
2024/02/03 10:01:49;;;;;;;1.53;1.10;;;10.60;98.20;;;;;;4950520;28;20508;-80
2024/02/03 10:07:45;;;;;;;1.50;1.00;;;10.70;98.20;;;;;;4952858;28;21109;-82
2024/02/03 10:10:32;;;;;;;1.57;1.10;;;10.70;98.20;;;;;;4960649;28;20761;-82
2024/02/03 10:13:26;;;;;;;1.57;1.10;;;10.70;98.20;;;;;;4959645;28;20565;-83
2024/02/03 10:22:58;;;;;;;1.53;1.00;;;10.70;98.20;;;;;;5609204;23;20489;-82
2024/02/03 10:34:43;;;;;;;1.57;1.10;;;10.90;98.20;;;;;;5034425;23;20864;-82
2024/02/03 10:40:30;;;;;;;1.60;1.10;;;11.00;98.20;;;;;;4968410;28;20907;-81
2024/02/03 10:43:05;;;;;;;1.60;1.10;;;11.00;98.20;;;;;;4967209;28;20521;-82
2024/02/03 10:45:42;;;;;;;1.60;1.10;;;11.00;98.20;;;;;;4975019;28;20973;-80
2024/02/03 10:48:17;;;;;;;1.60;1.10;;;11.00;98.20;;;;;;4964652;28;20481;-81
2024/02/03 10:50:59;;;;;;;1.60;1.10;;;11.00;98.20;;;;;;4973961;28;20590;-81
2024/02/03 10:56:41;;;;;;;1.60;1.10;;;11.00;98.20;;;;;;4963910;28;20517;-82
2024/02/03 10:59:19;;;;;;;1.60;1.00;;;11.00;98.20;;;;;;4929917;29;20528;-81
2024/02/03 11:01:46;;;;;;;1.53;1.10;;;11.00;98.20;;;;;;4963823;28;20517;-81
2024/02/03 11:04:14;;;;;;;1.50;1.00;;;11.00;98.20;;;;;;4968526;28;20468;-81
2024/02/03 11:06:47;;;;;;;1.60;1.00;;;11.00;98.20;;;;;;4972539;28;20485;-81
2024/02/03 11:09:16;;;;;;;1.60;1.17;;;11.00;98.20;;;;;;4975559;28;20540;-79
2024/02/03 11:11:46;;;;;;;1.57;1.00;;;11.00;98.20;;;;;;4962306;28;20483;-79
2024/02/03 11:14:16;;;;;;;1.60;1.10;;;11.00;98.20;;;;;;4978757;28;20462;-79
2024/02/03 11:16:44;;;;;;;1.60;1.10;;;11.00;98.20;;;;;;4971172;28;20473;-79
2024/02/03 11:19:13;;;;;;;1.60;1.10;;;11.00;98.20;;;;;;4982297;28;21008;-80
2024/02/03 11:21:45;;;;;;;1.60;1.07;;;11.00;98.20;;;;;;4966559;28;20516;-80
2024/02/03 11:24:14;;;;;;;1.60;1.00;;;11.00;98.20;;;;;;4975852;28;20466;-80
2024/02/03 11:26:42;;;;;;;1.60;1.10;;;11.00;98.20;;;;;;4971913;28;20527;-79
2024/02/03 11:29:09;;;;;;;1.60;1.10;;;11.10;98.20;;;;;;4974804;28;20522;-80
2024/02/03 11:31:37;;;;;;;1.53;1.00;;;11.10;98.20;;;;;;4963148;28;20477;-80
2024/02/03 11:34:05;;;;;;;1.57;1.10;;;11.10;98.20;;;;;;4977029;28;20461;-79
2024/02/03 11:36:32;;;;;;;1.60;1.10;;;11.10;98.20;;;;;;4963876;28;20484;-80
2024/02/03 11:39:01;;;;;;;1.60;1.03;;;11.10;98.20;;;;;;4972029;28;20450;-80
2024/02/03 11:41:29;;;;;;;1.53;1.10;;;11.10;98.20;;;;;;4968501;28;20491;-79
2024/02/03 11:44:08;;;;;;;1.60;1.07;;;11.10;98.20;;;;;;4975354;28;20462;-79
2024/02/03 11:47:01;;;;;;;1.60;1.10;;;11.20;98.20;;;;;;4959006;28;20772;-83
2024/02/03 11:49:28;;;;;;;1.60;1.10;;;11.20;98.20;;;;;;4973005;28;20494;-80
2024/02/03 11:52:10;;;;;;;1.60;1.10;;;11.20;98.20;;;;;;4973443;28;20477;-80
2024/02/03 11:54:38;;;;;;;1.60;1.00;;;11.20;98.20;;;;;;4979530;28;20541;-80
2024/02/03 11:57:06;;;;;;;1.60;1.10;;;11.30;98.20;;;;;;4966292;28;20512;-80
2024/02/03 11:59:51;;;;;;;1.57;1.00;;;11.30;98.20;;;;;;4982961;28;20504;-81
2024/02/03 12:03:00;;;;;;;1.57;1.00;;;11.30;98.20;;;;;;4940211;28;20487;-84
2024/02/03 12:19:09;;;;;;;1.60;1.00;;;11.30;98.20;;;;;;4915839;28;20487;-81
2024/02/03 12:25:49;;;;;;;1.60;1.10;;;11.40;98.20;;;;;;4665790;30;21089;-82
2024/02/03 12:28:25;;;;;;;1.57;1.10;;;11.40;98.20;;;;;;4710884;29;20548;-81
2024/02/03 12:30:56;;;;;;;1.57;1.00;;;11.40;98.20;;;;;;4867056;29;20542;-80
2024/02/03 12:33:23;;;;;;;1.60;1.20;;;11.40;98.20;;;;;;4937282;29;20458;-80
2024/02/03 12:36:01;;;;;;;1.60;1.10;;;11.40;98.20;;;;;;4947989;28;20459;-78
2024/02/03 12:42:04;;;;;;;1.60;1.10;;;11.30;98.20;;;;;;4922620;28;20479;-80
2024/02/03 12:45:16;;;;;;;1.60;1.10;;;11.30;98.20;;;;;;4959459;29;20467;-79
2024/02/03 12:47:45;;;;;;;1.60;1.10;;;11.30;98.20;;;;;;4944777;29;20526;-80
2024/02/03 12:50:15;;;;;;;1.53;1.10;;;11.30;98.20;;;;;;4943923;29;21103;-80
2024/02/03 12:57:24;;;;;;;1.60;1.10;;;11.30;98.20;;;;;;4854450;29;20513;-81
2024/02/03 12:59:52;;;;;;;1.53;1.10;;;11.20;98.20;;;;;;4882379;29;20571;-80
2024/02/03 13:02:19;;;;;;;1.60;1.10;;;11.20;98.20;;;;;;4922547;29;21010;-80
2024/02/03 13:04:48;;;;;;;1.60;1.10;;;11.20;98.20;;;;;;4944568;29;20464;-81
2024/02/03 13:07:15;;;;;;;1.57;1.10;;;11.20;98.20;;;;;;4929002;28;20558;-81
2024/02/03 13:09:43;;;;;;;1.60;1.10;;;11.10;98.20;;;;;;4939298;29;20863;-81
2024/02/03 13:12:11;;;;;;;1.60;1.10;;;11.10;98.20;;;;;;4931153;29;21634;-80
2024/02/03 13:14:38;;;;;;;1.60;1.10;;;11.10;98.20;;;;;;4942322;29;20467;-81
2024/02/03 13:17:06;;;;;;;1.50;1.10;;;11.10;98.20;;;;;;4938103;28;21094;-81
2024/02/03 13:19:34;;;;;;;1.53;1.10;;;11.10;98.20;;;;;;4947060;28;20582;-80
2024/02/03 13:22:04;;;;;;;1.60;1.20;;;11.10;98.20;;;;;;4931646;29;20494;-81
2024/02/03 13:24:35;;;;;;;1.57;1.07;;;11.10;98.20;;;;;;4939041;29;20500;-82
2024/02/03 13:27:12;;;;;;;1.60;1.20;;;11.10;98.20;;;;;;4944554;28;20509;-83
2024/02/03 13:36:53;;;;;;;1.60;1.13;;;11.10;98.20;;;;;;4865095;29;20485;-84
2024/02/03 13:42:02;;;;;;;1.53;1.00;;;11.10;98.20;;;;;;5070408;23;20881;-83
2024/02/03 13:44:30;;;;;;;1.60;1.10;;;11.10;98.20;;;;;;4958016;28;20470;-83
2024/02/03 13:47:25;;;;;;;1.60;1.20;;;11.10;98.20;;;;;;4951635;28;20746;-82
2024/02/03 13:50:04;;;;;;;1.50;1.00;;;11.10;98.20;;;;;;4947533;28;20901;-83
2024/02/03 13:52:32;;;;;;;1.57;1.07;;;11.10;98.20;;;;;;4931569;28;20568;-83
2024/02/03 13:55:12;;;;;;;1.53;1.00;;;11.10;98.20;;;;;;4926433;29;20792;-83
2024/02/03 13:57:56;;;;;;;1.57;1.00;;;11.20;98.20;;;;;;4926416;28;21033;-82
2024/02/03 14:00:26;;;;;;;1.60;1.10;;;11.20;98.20;;;;;;4925730;29;20586;-82
2024/02/03 14:03:00;;;;;;;1.60;1.10;;;11.20;98.20;;;;;;4931876;28;20820;-83
2024/02/03 14:05:28;;;;;;;1.60;1.10;;;11.20;98.20;;;;;;4926195;29;20780;-82
2024/02/03 14:07:57;;;;;;;1.60;1.10;;;11.20;98.20;;;;;;4931110;28;20493;-82
2024/02/03 14:10:33;;;;;;;1.60;1.30;;;11.20;98.20;;;;;;4926052;29;20495;-83
2024/02/03 14:13:05;;;;;;;1.57;1.10;;;11.20;98.20;;;;;;4939049;28;20486;-82
2024/02/03 14:15:44;;;;;;;1.57;1.07;;;11.20;98.20;;;;;;4954184;28;20466;-82
2024/02/03 14:18:12;;;;;;;1.60;1.20;;;11.20;98.20;;;;;;4936262;28;20662;-81
2024/02/03 14:20:42;;;;;;;4.53;1.67;;;11.20;98.20;;;;;;4947243;28;20585;-82
2024/02/03 14:26:31;;;;;;;1.57;1.00;;;11.20;98.20;;;;;;4916874;28;20601;-82
2024/02/03 14:29:00;;;;;;;1.60;1.10;;;11.20;98.20;;;;;;4945922;28;20467;-82
2024/02/03 14:31:27;;;;;;;1.50;1.00;;;11.20;98.20;;;;;;4938612;28;20487;-82
2024/02/03 14:34:17;;;;;;;1.60;1.17;;;11.20;98.20;;;;;;4948962;28;20907;-82
2024/02/03 14:36:44;;;;;;;1.60;1.10;;;11.20;98.20;;;;;;4943843;28;20497;-82
2024/02/03 14:39:11;;;;;;;1.60;1.10;;;11.20;98.20;;;;;;4956854;28;20494;-82
2024/02/03 14:41:39;;;;;;;1.60;1.10;;;11.20;98.20;;;;;;4935951;28;20502;-82
2024/02/03 14:44:10;;;;;;;1.57;1.00;;;11.10;98.20;;;;;;4950999;28;20666;-82
2024/02/03 14:46:40;;;;;;;1.57;1.00;;;11.10;98.20;;;;;;4945945;28;20886;-83
2024/02/03 14:49:12;;;;;;;1.70;1.47;;;11.10;98.20;;;;;;4955686;28;20542;-82
2024/02/03 14:51:49;;;;;;;1.57;1.00;;;11.10;98.20;;;;;;4943364;28;20509;-83
2024/02/03 14:54:18;;;;;;;1.50;1.00;;;11.10;98.20;;;;;;4952660;28;20495;-83
2024/02/03 14:56:45;;;;;;;1.53;1.10;;;11.10;98.20;;;;;;4944064;28;20505;-82
2024/02/03 14:59:14;;;;;;;1.57;1.07;;;11.00;98.20;;;;;;4953715;28;20506;-83
2024/02/03 15:01:41;;;;;;;1.57;1.00;;;11.00;98.20;;;;;;4936115;28;20559;-83
2024/02/03 15:04:10;;;;;;;1.57;1.10;;;11.00;98.20;;;;;;4936679;28;20628;-83
2024/02/03 15:06:38;;;;;;;1.57;1.07;;;11.00;98.20;;;;;;4925418;28;20537;-83
2024/02/03 15:09:07;;;;;;;1.60;1.10;;;11.00;98.20;;;;;;4933676;28;20480;-83
2024/02/03 15:11:35;;;;;;;1.53;1.00;;;11.00;98.20;;;;;;4931130;28;20884;-82
2024/02/03 15:14:04;;;;;;;1.53;1.00;;;11.00;98.20;;;;;;4958173;28;20466;-83
2024/02/03 15:16:40;;;;;;;1.60;1.10;;;11.00;98.20;;;;;;4947894;28;21140;-83
2024/02/03 17:03:10;;;;;;;1.60;1.10;;;10.60;98.20;;;;;;4713449;26;20468;-84
2024/02/03 17:05:40;;;;;;;1.60;1.10;;;10.60;98.20;;;;;;4995327;28;20547;-83
2024/02/03 17:08:18;;;;;;;1.60;1.07;;;10.50;98.20;;;;;;4935741;28;20576;-83
2024/02/03 17:11:00;;;;;;;1.60;1.10;;;10.50;98.20;;;;;;4953422;28;21008;-83
2024/02/03 17:16:28;;;;;;;1.57;1.10;;;10.50;98.20;;;;;;4913621;28;21005;-84
2024/02/03 17:19:08;;;;;;;1.60;1.10;;;10.50;98.20;;;;;;4964425;28;21510;-84
2024/02/03 17:24:50;;;;;;;1.57;1.10;;;10.50;98.20;;;;;;4852211;29;20540;-84
2024/02/03 17:27:17;;;;;;;1.60;1.20;;;10.50;98.20;;;;;;4874303;29;20553;-84
2024/02/03 17:30:12;;;;;;;1.60;1.10;;;10.50;98.20;;;;;;4937877;28;20485;-83
2024/02/03 17:32:48;;;;;;;1.60;1.10;;;10.50;98.20;;;;;;4984662;28;20566;-85
2024/02/03 17:35:58;;;;;;;1.60;1.20;;;10.50;98.20;;;;;;4985427;28;20536;-85
2024/02/03 17:46:42;;;;;;;1.60;1.10;;;10.50;98.20;;;;;;4938062;26;20472;-84
2024/02/03 17:49:12;;;;;;;1.57;1.10;;;10.50;98.20;;;;;;5005814;28;20465;-84
2024/02/03 17:51:42;;;;;;;1.60;1.10;;;10.50;98.20;;;;;;4983162;28;20465;-83
2024/02/03 17:54:09;;;;;;;1.60;1.10;;;10.50;98.20;;;;;;4993081;28;20901;-84
2024/02/03 17:56:40;;;;;;;1.53;1.10;;;10.50;98.20;;;;;;4981452;28;20499;-83
2024/02/03 17:59:08;;;;;;;1.60;1.10;;;10.50;98.20;;;;;;4993379;28;20480;-83
2024/02/03 18:01:35;;;;;;;1.57;1.10;;;10.50;98.20;;;;;;4982685;28;20515;-84
2024/02/03 18:04:03;;;;;;;1.53;1.10;;;10.50;98.20;;;;;;4985370;28;21007;-83
2024/02/03 18:06:30;;;;;;;1.60;1.10;;;10.50;98.20;;;;;;4980181;28;20535;-83
2024/02/03 18:08:57;;;;;;;1.57;1.10;;;10.50;98.20;;;;;;4991326;28;20469;-83
2024/02/03 18:11:26;;;;;;;1.60;1.10;;;10.50;98.20;;;;;;4983144;28;20579;-83
2024/02/03 18:13:53;;;;;;;1.60;1.20;;;10.50;98.20;;;;;;4993605;28;20534;-82
2024/02/03 18:16:21;;;;;;;1.60;1.10;;;10.50;98.20;;;;;;4982663;28;20500;-82
2024/02/03 18:18:48;;;;;;;1.57;1.10;;;10.50;98.20;;;;;;4996888;28;20536;-83
2024/02/03 18:21:21;;;;;;;1.57;1.00;;;10.50;98.20;;;;;;4981636;28;20492;-82
2024/02/03 23:34:08;;;;;;;1.57;1.10;;;10.40;98.20;;;;;;6015361;23;20454;-83
2024/02/03 23:36:35;;;;;;;1.57;1.10;;;10.40;98.20;;;;;;4923149;29;20519;-82
2024/02/03 23:39:03;;;;;;;1.70;1.20;;;10.40;98.20;;;;;;4944362;28;20894;-85
2024/02/03 23:41:29;;;;;;;1.53;1.00;;;10.40;98.20;;;;;;4939094;29;20488;-83
2024/02/03 23:44:03;;;;;;;1.53;1.00;;;10.40;98.20;;;;;;4942849;28;20447;-85
2024/02/03 23:46:33;;;;;;;1.60;1.20;;;10.40;98.20;;;;;;4945466;28;20501;-85
2024/02/03 23:49:00;;;;;;;1.60;1.10;;;10.40;98.20;;;;;;4954014;28;20474;-83
2024/02/03 23:51:28;;;;;;;1.57;1.10;;;10.40;98.20;;;;;;4938392;29;20486;-82
2024/02/03 23:53:58;;;;;;;1.57;1.10;;;10.40;98.20;;;;;;4952782;28;20538;-84
2024/02/03 23:56:25;;;;;;;1.60;1.20;;;10.40;98.20;;;;;;4941376;28;20553;-85
2024/02/03 23:58:52;;;;;;;1.60;1.10;;;10.40;98.20;;;;;;4958770;28;20463;-85
